Preble, Wisconsin
Current Conditions -  °F | °C
As of 11:53 PM on Saturday 22 Nov 2014 (Local Time) from KGRB Reporting Station
Haze Haze  
Wind Chill: 38°   Ceiling: 500
Heat Index: 42°   Visibility: 2.5mi
Dew Point: 41°   Wind: 6mph
Humidity: 96%   Direction: 190°S
Pressure: 29.73"   Gusts: NA
Location:  44.5075°N, 87.9746°W
Report Text: KGRB 230553Z AUTO 19005KT 2 1/2SM BR OVC005 06/05 A2973 RMK AO2 SLP072 T00560050 10056 20022 400561006 56011
Loading
Personal Weather Stations






























Interactive Weather Map New forecast layout! Learn more

10-Day Weather Forecast

Advertisements
Track Severe Weather on mobile